Time;durP1;ratioP1;P1;durP2;ratioP2;P2;SDS_P1;SDS_P2;PMS_P1;PMS_P2;Temp;Humidity;BMP_temperature;BMP_pressure;BME280_temperature;BME280_humidity;BME280_pressure;Samples;Min_cycle;Max_cycle;Signal;HPM_P1;HPM_P2
2023/01/31 00:01:13;;;;;;;52.23;10.27;;;;;;;3.72;62.51;99038.00;5091966;28;20445;-64
2023/01/31 00:03:41;;;;;;;13.47;8.50;;;;;;;3.81;61.89;99048.34;5092178;28;20494;-65
2023/01/31 00:06:14;;;;;;;14.30;8.63;;;;;;;3.92;60.90;99055.88;5092122;28;20435;-63
2023/01/31 00:08:41;;;;;;;11.63;8.73;;;;;;;4.01;61.45;99064.56;5092238;28;20453;-65
2023/01/31 00:11:08;;;;;;;19.87;8.57;;;;;;;4.10;61.52;99056.53;5092216;28;20525;-64
2023/01/31 00:13:35;;;;;;;19.50;8.93;;;;;;;4.14;61.69;99068.34;5091756;28;20505;-64
2023/01/31 00:16:02;;;;;;;13.77;8.30;;;;;;;4.14;61.97;99060.47;5092124;28;20437;-64
2023/01/31 00:18:30;;;;;;;9.97;7.87;;;;;;;4.14;62.17;99059.63;5091705;28;20494;-64
2023/01/31 00:20:57;;;;;;;20.87;9.47;;;;;;;4.23;61.95;99058.63;5092109;28;20437;-64
2023/01/31 00:23:24;;;;;;;14.73;9.37;;;;;;;4.17;61.33;99057.50;5091660;28;20486;-64
2023/01/31 00:25:50;;;;;;;10.50;8.33;;;;;;;4.15;61.18;99051.59;5091947;28;20460;-64
2023/01/31 00:28:17;;;;;;;10.30;8.47;;;;;;;4.15;61.66;99062.09;5092153;28;20441;-64
2023/01/31 00:30:44;;;;;;;11.23;8.57;;;;;;;4.21;61.48;99056.16;5084451;28;20474;-64
2023/01/31 00:33:10;;;;;;;12.33;9.07;;;;;;;4.15;61.33;99056.84;5073365;28;20468;-64
2023/01/31 00:35:40;;;;;;;11.00;8.43;;;;;;;4.12;61.08;99057.19;5075371;28;20441;-64
2023/01/31 00:38:07;;;;;;;10.43;9.17;;;;;;;4.16;61.08;99053.22;5075265;28;20469;-64
2023/01/31 00:40:34;;;;;;;11.93;8.40;;;;;;;4.22;61.15;99047.31;5075231;28;20477;-64
2023/01/31 00:43:01;;;;;;;9.40;8.40;;;;;;;4.29;60.60;99042.22;5075403;28;20484;-64
2023/01/31 00:45:28;;;;;;;18.10;8.20;;;;;;;4.20;60.42;99038.75;5075324;28;20438;-64
2023/01/31 00:47:54;;;;;;;18.67;8.20;;;;;;;4.13;60.62;99026.47;5074989;28;20957;-64
2023/01/31 00:50:21;;;;;;;11.77;7.97;;;;;;;4.19;61.44;99031.88;5075278;28;20477;-64
2023/01/31 00:52:49;;;;;;;12.87;7.67;;;;;;;4.21;61.51;99027.25;5075186;28;20476;-63
2023/01/31 00:55:16;;;;;;;10.20;6.73;;;;;;;4.12;62.19;99041.41;5075003;28;20437;-64
2023/01/31 00:57:43;;;;;;;8.67;7.77;;;;;;;4.22;61.63;99031.56;5074819;28;20487;-64
2023/01/31 01:00:11;;;;;;;9.37;6.93;;;;;;;4.28;61.82;99041.38;5074904;28;20449;-64
2023/01/31 01:02:37;;;;;;;8.03;7.20;;;;;;;4.16;62.79;99037.47;5074698;28;20434;-64
2023/01/31 01:05:05;;;;;;;9.73;7.97;;;;;;;4.09;62.83;99036.47;5074760;28;20434;-64
2023/01/31 01:07:31;;;;;;;11.97;7.90;;;;;;;4.12;62.87;99046.66;5074669;28;20938;-64
2023/01/31 01:10:00;;;;;;;11.00;8.63;;;;;;;4.04;63.59;99041.41;5074693;28;20523;-64
2023/01/31 01:12:27;;;;;;;8.97;7.90;;;;;;;4.13;63.64;99050.91;5074892;28;20442;-63
2023/01/31 01:14:54;;;;;;;9.87;7.47;;;;;;;4.25;63.31;99046.97;5074596;28;20937;-64
2023/01/31 01:17:21;;;;;;;9.40;7.00;;;;;;;4.23;64.08;99038.44;5075029;28;20434;-63
2023/01/31 01:19:47;;;;;;;11.30;7.83;;;;;;;4.30;63.64;99046.47;5074783;28;20446;-64
2023/01/31 01:22:15;;;;;;;8.10;7.33;;;;;;;4.43;63.59;99029.19;5074824;28;20507;-64
2023/01/31 01:24:42;;;;;;;6.97;6.37;;;;;;;4.26;64.17;99032.84;5074370;28;20529;-64
2023/01/31 01:27:12;;;;;;;8.10;6.70;;;;;;;4.35;64.12;99037.09;5075011;28;20472;-64
2023/01/31 01:29:39;;;;;;;7.70;6.70;;;;;;;4.38;64.89;99041.22;5074463;28;20474;-64
2023/01/31 01:32:06;;;;;;;8.97;7.43;;;;;;;4.40;64.82;99034.78;5093498;28;20437;-64
2023/01/31 01:34:34;;;;;;;7.37;6.47;;;;;;;4.46;64.83;99034.09;5094374;28;20433;-64
2023/01/31 01:37:10;;;;;;;10.20;6.57;;;;;;;4.49;65.58;99028.50;5095025;28;20898;-64
2023/01/31 01:39:37;;;;;;;8.30;6.37;;;;;;;4.48;65.54;99019.00;5094445;28;20417;-64
2023/01/31 01:42:04;;;;;;;6.77;6.17;;;;;;;4.54;65.77;99022.75;5094692;28;20449;-63
2023/01/31 01:44:53;;;;;;;6.87;6.17;;;;;;;4.56;65.63;99016.34;5093519;28;20437;-64
2023/01/31 01:47:28;;;;;;;8.20;6.63;;;;;;;4.55;66.23;99016.50;5094339;28;21001;-63
2023/01/31 01:49:59;;;;;;;6.17;5.53;;;;;;;4.64;65.76;99011.03;5094456;28;20460;-64
2023/01/31 01:52:28;;;;;;;10.33;5.67;;;;;;;4.51;65.86;99008.16;5094815;28;20486;-64
2023/01/31 01:55:00;;;;;;;9.10;5.10;;;;;;;4.59;66.62;99013.38;5094399;28;20441;-64
2023/01/31 01:57:33;;;;;;;6.27;5.43;;;;;;;4.51;66.42;99005.50;5094658;28;20270;-64
2023/01/31 02:00:11;;;;;;;6.00;5.40;;;;;;;4.53;66.53;99013.19;5093966;28;20445;-63
2023/01/31 02:02:38;;;;;;;5.40;4.67;;;;;;;4.46;66.77;99013.06;5094385;28;20425;-64
2023/01/31 02:05:06;;;;;;;5.00;4.70;;;;;;;4.52;67.21;99001.06;5094249;28;20455;-63
2023/01/31 02:07:33;;;;;;;4.83;4.43;;;;;;;4.53;66.95;98995.63;5093873;28;20870;-64
2023/01/31 02:10:07;;;;;;;5.67;5.17;;;;;;;4.59;67.01;98983.63;5093668;28;20472;-64
2023/01/31 02:12:35;;;;;;;5.07;4.67;;;;;;;4.55;67.07;98975.25;5094149;28;20187;-64
2023/01/31 02:15:04;;;;;;;4.43;4.03;;;;;;;4.57;66.94;98975.88;5093912;28;20441;-63
2023/01/31 02:17:31;;;;;;;9.10;4.33;;;;;;;4.69;66.17;98979.78;5093639;28;20195;-64
2023/01/31 02:20:08;;;;;;;4.97;4.53;;;;;;;4.75;66.16;98979.09;5093840;28;20498;-64
2023/01/31 02:22:42;;;;;;;14.63;5.00;;;;;;;4.78;65.65;98980.56;5093989;28;20498;-64
2023/01/31 02:25:48;;;;;;;4.80;4.00;;;;;;;4.82;65.34;98982.69;5093678;28;20183;-64
2023/01/31 02:28:57;;;;;;;4.57;4.20;;;;;;;4.81;65.09;98978.41;5093463;28;20432;-64
2023/01/31 02:32:05;;;;;;;4.27;4.00;;;;;;;4.86;65.43;98989.22;5065043;28;20562;-64
2023/01/31 02:34:43;;;;;;;4.33;3.93;;;;;;;4.78;65.00;98989.28;5073403;28;20491;-64
2023/01/31 02:37:22;;;;;;;3.80;3.50;;;;;;;4.93;64.28;98984.09;5073129;28;20187;-64
2023/01/31 02:39:58;;;;;;;3.97;3.73;;;;;;;4.99;64.47;98989.50;5073225;28;20491;-64
2023/01/31 02:42:34;;;;;;;3.50;3.27;;;;;;;4.95;63.92;98985.56;5073480;28;20242;-64
2023/01/31 02:45:09;;;;;;;3.63;3.20;;;;;;;4.99;63.08;98989.50;5073186;28;20491;-64
2023/01/31 02:47:51;;;;;;;3.17;2.97;;;;;;;5.07;62.46;98986.00;5073284;28;20180;-64
2023/01/31 02:50:26;;;;;;;2.50;2.40;;;;;;;5.11;61.62;98987.31;5072655;28;20775;-64
2023/01/31 02:52:59;;;;;;;3.03;2.77;;;;;;;5.27;61.17;98995.09;5072728;28;20618;-64
2023/01/31 02:58:17;;;;;;;2.80;2.70;;;;;;;5.37;59.73;98993.03;5072859;28;20261;-64
2023/01/31 03:00:46;;;;;;;3.00;2.80;;;;;;;5.34;60.08;98996.84;5072446;28;20199;-65
2023/01/31 03:03:21;;;;;;;2.60;2.50;;;;;;;5.44;59.49;98994.78;5073103;28;20195;-63
2023/01/31 03:06:24;;;;;;;3.13;2.47;;;;;;;5.47;59.15;98994.44;5072516;28;20184;-64
2023/01/31 03:08:56;;;;;;;2.60;2.50;;;;;;;5.57;59.06;98995.00;5056037;28;20199;-64
2023/01/31 03:11:29;;;;;;;3.80;2.50;;;;;;;5.62;59.09;98987.44;5072814;28;20261;-64
2023/01/31 03:14:04;;;;;;;3.13;2.93;;;;;;;5.69;58.77;98985.69;5072953;28;20192;-64
2023/01/31 03:19:31;;;;;;;2.73;2.53;;;;;;;5.74;57.47;98998.34;5072572;28;20175;-64
2023/01/31 03:22:04;;;;;;;3.00;2.80;;;;;;;5.80;57.32;99005.53;5072672;28;20229;-64
2023/01/31 03:24:31;;;;;;;2.97;2.77;;;;;;;5.79;57.38;98999.47;5072289;28;20241;-65
2023/01/31 03:27:02;;;;;;;3.83;3.40;;;;;;;5.76;57.55;99005.09;5072673;28;20277;-64
2023/01/31 03:29:33;;;;;;;3.40;3.20;;;;;;;5.87;57.48;99000.44;5072746;28;20242;-64
2023/01/31 03:32:05;;;;;;;3.50;3.13;;;;;;;5.78;57.32;98997.84;5090465;28;20286;-64
2023/01/31 03:34:32;;;;;;;3.87;3.50;;;;;;;5.82;57.28;99005.41;5092762;28;20187;-65
2023/01/31 03:37:11;;;;;;;4.40;4.00;;;;;;;5.77;57.41;99001.44;5092583;28;20240;-64
2023/01/31 03:39:41;;;;;;;4.13;3.83;;;;;;;5.66;57.88;99007.16;5092602;28;20189;-64
2023/01/31 03:42:14;;;;;;;4.67;4.37;;;;;;;5.56;58.21;99003.91;5092442;28;20622;-64
2023/01/31 03:44:49;;;;;;;6.13;4.33;;;;;;;5.48;58.72;99008.44;5092389;28;20198;-65
2023/01/31 03:47:21;;;;;;;4.27;3.87;;;;;;;5.49;59.59;98996.91;5092664;28;20187;-64
2023/01/31 03:49:50;;;;;;;6.30;4.40;;;;;;;5.35;59.44;99009.03;5092341;28;20629;-64
2023/01/31 03:52:23;;;;;;;4.77;4.33;;;;;;;5.32;59.76;99008.56;5092347;28;20223;-64
2023/01/31 03:54:55;;;;;;;4.43;4.13;;;;;;;5.34;59.34;99010.03;5092006;28;20187;-64
2023/01/31 03:57:25;;;;;;;20.13;5.40;;;;;;;5.27;58.25;99014.34;5092600;28;20574;-64
2023/01/31 03:59:58;;;;;;;5.10;4.60;;;;;;;5.22;58.76;99011.41;5092212;28;20179;-64
2023/01/31 04:02:31;;;;;;;8.97;4.70;;;;;;;5.18;57.11;99019.81;5092069;28;20639;-64
2023/01/31 04:05:04;;;;;;;10.03;5.00;;;;;;;5.08;55.83;99021.84;5092262;28;20182;-64
2023/01/31 04:07:32;;;;;;;10.93;5.03;;;;;;;5.09;54.41;99026.13;5093317;28;20182;-64
2023/01/31 04:09:59;;;;;;;13.33;5.83;;;;;;;4.98;53.79;99035.22;5096318;28;20187;-64
2023/01/31 04:12:26;;;;;;;26.80;6.13;;;;;;;5.01;54.26;99040.16;5096200;28;20307;-64
2023/01/31 04:14:52;;;;;;;11.03;5.37;;;;;;;4.96;54.79;99042.50;5096369;28;20440;-64
2023/01/31 04:17:19;;;;;;;9.20;5.83;;;;;;;4.99;54.01;99051.84;5096152;28;20218;-64
2023/01/31 04:19:46;;;;;;;35.10;7.50;;;;;;;4.95;53.94;99051.34;5096169;28;20203;-65
2023/01/31 04:22:12;;;;;;;91.43;10.70;;;;;;;4.94;54.43;99060.25;5095927;28;20256;-64
2023/01/31 04:24:40;;;;;;;16.67;6.33;;;;;;;4.87;54.86;99051.38;5095724;28;20662;-64
2023/01/31 04:27:07;;;;;;;8.77;5.90;;;;;;;4.85;55.37;99056.00;5096216;28;20995;-64
2023/01/31 04:29:34;;;;;;;31.73;7.60;;;;;;;4.77;55.30;99053.41;5095978;28;20199;-65
2023/01/31 04:32:01;;;;;;;41.60;9.70;;;;;;;4.79;55.60;99054.03;5077644;28;20473;-64
2023/01/31 04:34:27;;;;;;;13.60;6.63;;;;;;;4.74;56.04;99064.25;5075611;28;20195;-64
2023/01/31 04:36:54;;;;;;;48.70;8.27;;;;;;;4.71;56.35;99054.06;5075310;28;20442;-64
2023/01/31 04:39:21;;;;;;;28.47;7.93;;;;;;;4.53;56.47;99040.34;5075825;28;20450;-64
2023/01/31 04:41:49;;;;;;;13.83;7.27;;;;;;;4.67;56.45;99070.38;5075255;28;20441;-65
2023/01/31 04:44:16;;;;;;;22.33;7.83;;;;;;;4.68;56.91;99062.31;5075658;28;20192;-64
2023/01/31 04:46:45;;;;;;;8.07;6.77;;;;;;;4.59;57.30;99068.59;5075474;28;20279;-65
2023/01/31 04:49:12;;;;;;;11.83;7.03;;;;;;;4.62;57.76;99081.38;5075118;28;20438;-64
2023/01/31 04:51:38;;;;;;;14.20;7.87;;;;;;;4.58;57.32;99082.72;5082009;28;20283;-64
2023/01/31 04:54:05;;;;;;;18.67;6.97;;;;;;;4.55;57.70;99082.25;5095504;28;20874;-64
2023/01/31 04:56:32;;;;;;;11.60;7.10;;;;;;;4.37;59.23;99085.06;5094699;28;20195;-64
2023/01/31 04:59:00;;;;;;;8.77;7.60;;;;;;;4.36;59.24;99078.16;5095177;28;20548;-63
2023/01/31 05:01:28;;;;;;;9.37;7.43;;;;;;;4.34;59.73;99087.22;5095422;28;20433;-63
2023/01/31 05:03:54;;;;;;;9.47;7.17;;;;;;;4.37;59.60;99094.78;5095403;28;20529;-64
2023/01/31 05:06:21;;;;;;;15.93;7.93;;;;;;;4.36;60.02;99095.75;5095308;28;20490;-63
2023/01/31 05:08:48;;;;;;;13.73;7.97;;;;;;;4.21;60.96;99092.97;5095272;28;20425;-64
2023/01/31 05:11:14;;;;;;;15.37;8.07;;;;;;;4.20;61.15;99091.34;5095037;28;20694;-63
2023/01/31 05:13:41;;;;;;;10.20;7.47;;;;;;;4.03;61.81;99078.34;5095242;28;20870;-64
2023/01/31 05:16:10;;;;;;;28.43;8.57;;;;;;;4.10;61.04;99082.81;5094779;28;20786;-63
2023/01/31 05:18:38;;;;;;;13.30;7.27;;;;;;;3.96;61.10;99083.47;5095065;28;20440;-64
2023/01/31 05:21:06;;;;;;;21.53;7.07;;;;;;;3.97;60.59;99079.84;5095007;28;20490;-64
2023/01/31 05:23:33;;;;;;;8.00;6.80;;;;;;;3.90;61.48;99083.28;5095084;28;20499;-64
2023/01/31 05:26:00;;;;;;;13.40;7.47;;;;;;;3.95;60.52;99071.31;5094965;28;20567;-64
2023/01/31 05:28:26;;;;;;;19.57;8.77;;;;;;;3.92;60.90;99076.88;5094561;28;20997;-63
2023/01/31 05:30:54;;;;;;;10.43;7.27;;;;;;;3.93;61.53;99083.78;5085928;28;20480;-64
2023/01/31 05:33:22;;;;;;;21.60;7.73;;;;;;;3.97;60.73;99079.84;5074958;28;20434;-64
2023/01/31 05:35:49;;;;;;;7.40;6.37;;;;;;;3.95;60.61;99076.56;5074438;28;20929;-64
2023/01/31 05:38:16;;;;;;;7.43;6.73;;;;;;;3.93;60.89;99089.03;5074555;28;20487;-64
2023/01/31 05:40:42;;;;;;;8.73;6.30;;;;;;;3.96;61.36;99091.34;5074258;28;20500;-65
2023/01/31 05:43:09;;;;;;;13.20;7.50;;;;;;;4.03;60.88;99087.06;5073991;28;20438;-68
2023/01/31 05:45:36;;;;;;;7.17;6.33;;;;;;;4.03;61.74;99086.25;5073881;28;20961;-69
2023/01/31 05:48:03;;;;;;;8.10;6.67;;;;;;;4.04;61.50;99091.34;5074189;28;20442;-68
2023/01/31 05:50:31;;;;;;;7.80;6.33;;;;;;;3.98;61.96;99081.50;5082028;28;20449;-68
2023/01/31 05:52:59;;;;;;;12.50;7.73;;;;;;;3.91;63.31;99080.50;5094275;28;20484;-69
2023/01/31 05:55:26;;;;;;;12.40;6.97;;;;;;;3.89;63.79;99082.47;5094208;28;20444;-69
2023/01/31 05:57:54;;;;;;;17.90;8.30;;;;;;;3.86;63.38;99092.47;5093856;28;21029;-68
2023/01/31 06:00:21;;;;;;;12.77;7.93;;;;;;;3.84;63.94;99090.00;5094156;28;20441;-69
2023/01/31 06:02:48;;;;;;;14.10;10.70;;;;;;;3.89;64.86;99100.03;5093695;28;20449;-68
2023/01/31 06:05:16;;;;;;;16.03;8.57;;;;;;;3.74;64.99;99089.38;5094256;28;20441;-68
2023/01/31 06:07:44;;;;;;;9.63;8.53;;;;;;;3.78;66.03;99106.44;5092696;28;20440;-67
2023/01/31 06:10:12;;;;;;;10.53;7.90;;;;;;;3.84;65.36;99095.25;5093552;28;20508;-68
2023/01/31 06:12:39;;;;;;;13.37;7.77;;;;;;;3.86;65.28;99103.81;5093793;28;20857;-67
2023/01/31 06:15:07;;;;;;;7.20;6.60;;;;;;;3.82;64.25;99113.00;5093533;28;20449;-68
2023/01/31 06:17:33;;;;;;;8.17;7.03;;;;;;;3.76;64.87;99113.66;5093843;28;20433;-68
2023/01/31 06:20:00;;;;;;;16.60;8.37;;;;;;;3.83;64.79;99104.13;5093831;28;20441;-68
2023/01/31 06:22:27;;;;;;;15.07;6.77;;;;;;;3.87;64.90;99110.72;5093506;28;20441;-68
2023/01/31 06:24:55;;;;;;;12.83;6.80;;;;;;;3.91;65.33;99126.97;5093663;28;20433;-67
2023/01/31 06:27:22;;;;;;;9.33;6.87;;;;;;;3.94;65.06;99116.97;5094040;28;20465;-67
2023/01/31 06:29:48;;;;;;;16.80;8.17;;;;;;;4.08;64.52;99129.44;5093020;28;21013;-67
2023/01/31 06:32:16;;;;;;;13.37;7.53;;;;;;;4.10;64.09;99127.47;5073136;28;20523;-67
2023/01/31 06:34:42;;;;;;;12.50;7.40;;;;;;;4.17;63.99;99127.66;5080176;28;21005;-68
2023/01/31 06:37:09;;;;;;;15.33;7.10;;;;;;;4.19;64.15;99129.13;5093205;28;21096;-68
2023/01/31 06:39:36;;;;;;;10.87;7.40;;;;;;;4.29;64.27;99127.13;5093200;28;20429;-68
2023/01/31 06:42:05;;;;;;;47.17;7.60;;;;;;;4.35;63.81;99142.25;5093466;28;20264;-68
2023/01/31 06:44:32;;;;;;;9.37;6.70;;;;;;;4.53;63.32;99144.69;5092805;28;20932;-68
2023/01/31 06:46:59;;;;;;;8.13;5.30;;;;;;;4.59;63.25;99142.25;5093127;28;20444;-66
2023/01/31 06:49:26;;;;;;;20.37;6.90;;;;;;;4.67;62.86;99141.41;5093042;28;20191;-66
2023/01/31 06:51:53;;;;;;;38.07;9.47;;;;;;;4.75;62.98;99147.44;5092687;28;20318;-66
2023/01/31 06:54:19;;;;;;;9.03;6.67;;;;;;;4.84;62.49;99143.84;5092933;28;20467;-66
2023/01/31 06:56:46;;;;;;;17.03;6.83;;;;;;;4.93;62.56;99148.06;5093163;28;20437;-67
2023/01/31 06:59:14;;;;;;;10.93;6.73;;;;;;;4.87;62.62;99154.00;5092547;28;20240;-66
2023/01/31 07:01:41;;;;;;;25.43;8.27;;;;;;;4.89;62.52;99152.03;5092056;28;20248;-65
2023/01/31 07:04:07;;;;;;;12.27;8.07;;;;;;;4.91;62.52;99165.03;5090948;28;20191;-66
2023/01/31 07:06:34;;;;;;;9.97;6.83;;;;;;;5.02;62.51;99162.84;5091154;28;20867;-65
2023/01/31 07:09:01;;;;;;;12.30;7.20;;;;;;;5.07;62.58;99152.63;5073454;28;20199;-65
2023/01/31 07:11:27;;;;;;;25.30;6.63;;;;;;;5.17;62.65;99165.59;5085352;28;20210;-65
2023/01/31 07:13:54;;;;;;;11.77;6.53;;;;;;;5.11;62.59;99159.19;5092680;28;20187;-66
2023/01/31 07:16:24;;;;;;;8.43;6.87;;;;;;;5.13;62.64;99169.56;5092930;28;20195;-65
2023/01/31 07:18:52;;;;;;;13.10;7.17;;;;;;;4.79;62.59;99119.81;5092690;28;20202;-65
2023/01/31 07:21:19;;;;;;;43.57;8.80;;;;;;;5.16;63.24;99174.50;5092902;28;20191;-66
2023/01/31 07:23:45;;;;;;;9.30;6.43;;;;;;;5.20;63.24;99181.88;5092570;28;20868;-65
2023/01/31 07:26:12;;;;;;;24.10;6.73;;;;;;;5.22;62.81;99179.91;5092046;28;20272;-64
2023/01/31 07:28:39;;;;;;;32.20;7.47;;;;;;;5.28;63.17;99187.09;5086385;28;20249;-66
2023/01/31 07:31:06;;;;;;;46.17;9.77;;;;;;;5.35;62.87;99193.34;5082010;28;20196;-65
2023/01/31 07:33:34;;;;;;;14.97;7.70;;;;;;;5.21;63.34;99191.44;5072018;28;20564;-65
2023/01/31 07:36:03;;;;;;;10.90;8.10;;;;;;;5.27;63.09;99192.56;5072364;28;20624;-64
2023/01/31 07:38:30;;;;;;;9.00;6.77;;;;;;;5.33;62.47;99208.50;5072402;28;20224;-66
2023/01/31 07:40:58;;;;;;;9.53;7.83;;;;;;;5.31;62.31;99196.50;5071846;28;20446;-64
2023/01/31 07:43:25;;;;;;;17.37;7.87;;;;;;;5.35;62.63;99201.25;5083401;28;20202;-64
2023/01/31 07:45:52;;;;;;;17.50;7.37;;;;;;;5.48;62.49;99201.50;5092493;28;20191;-64
2023/01/31 07:48:22;;;;;;;21.93;7.80;;;;;;;5.47;62.22;99205.16;5092064;28;20609;-64
2023/01/31 07:50:50;;;;;;;11.23;7.27;;;;;;;5.56;61.68;99201.47;5091850;28;20678;-63
2023/01/31 07:53:17;;;;;;;14.77;6.90;;;;;;;5.60;61.38;99204.63;5092059;28;20689;-63
2023/01/31 07:55:46;;;;;;;6.30;5.70;;;;;;;5.66;61.19;99209.19;5092200;28;20195;-64
2023/01/31 07:58:13;;;;;;;11.07;6.50;;;;;;;5.70;61.28;99211.31;5090721;28;20193;-65
2023/01/31 08:03:35;;;;;;;7.00;6.30;;;;;;;5.87;60.11;99216.53;5092164;28;20267;-65
2023/01/31 08:06:08;;;;;;;5.70;5.30;;;;;;;5.94;59.16;99222.72;5092190;28;20187;-67
2023/01/31 08:08:35;;;;;;;7.77;5.53;;;;;;;5.90;59.29;99230.19;5091869;28;20191;-66
2023/01/31 08:11:03;;;;;;;6.40;5.23;;;;;;;5.99;59.68;99221.22;5092204;28;20245;-67
2023/01/31 08:13:30;;;;;;;13.70;10.33;;;;;;;6.06;59.24;99221.34;5091564;28;20605;-68
2023/01/31 08:15:57;;;;;;;10.93;8.40;;;;;;;6.28;58.55;99231.13;5091932;28;20253;-66
2023/01/31 08:18:24;;;;;;;11.20;5.80;;;;;;;6.38;58.24;99234.31;5091906;28;20191;-65
2023/01/31 08:20:50;;;;;;;10.87;5.87;;;;;;;6.37;58.09;99237.97;5091514;28;20214;-66
2023/01/31 08:23:18;;;;;;;10.57;6.60;;;;;;;6.34;58.41;99235.69;5091829;28;20370;-67
2023/01/31 08:25:45;;;;;;;17.97;6.37;;;;;;;6.41;58.13;99247.19;5091604;28;20226;-67
2023/01/31 08:28:12;;;;;;;9.77;5.00;;;;;;;6.42;57.51;99232.97;5091714;28;20241;-67
2023/01/31 08:30:43;;;;;;;15.63;5.50;;;;;;;6.52;57.86;99233.56;5085378;28;20204;-67
2023/01/31 08:33:11;;;;;;;21.43;6.27;;;;;;;6.53;56.68;99241.28;5081136;28;20208;-66
2023/01/31 08:35:38;;;;;;;8.87;5.53;;;;;;;6.35;57.97;99243.41;5079534;28;20188;-67
2023/01/31 08:38:04;;;;;;;58.13;8.27;;;;;;;6.56;57.55;99240.13;5088761;28;20646;-67
2023/01/31 08:40:32;;;;;;;9.73;6.07;;;;;;;6.55;57.55;99249.03;5091522;28;20195;-67
2023/01/31 08:43:00;;;;;;;16.07;6.37;;;;;;;6.57;57.32;99247.88;5091358;28;20642;-67
2023/01/31 08:45:27;;;;;;;16.43;7.50;;;;;;;6.65;57.82;99242.53;5091692;28;20198;-67
2023/01/31 08:47:55;;;;;;;10.83;5.40;;;;;;;6.64;57.09;99245.34;5091628;28;20625;-67
2023/01/31 08:50:22;;;;;;;7.07;6.37;;;;;;;6.60;57.31;99249.31;5091478;28;20731;-66
2023/01/31 08:52:52;;;;;;;9.20;5.37;;;;;;;6.68;56.92;99247.47;5091267;28;20638;-66
2023/01/31 08:55:19;;;;;;;7.47;5.00;;;;;;;6.57;57.04;99253.13;5094476;28;20194;-66
2023/01/31 08:57:48;;;;;;;20.10;6.27;;;;;;;6.80;56.66;99255.75;5093296;28;20211;-67
2023/01/31 09:00:16;;;;;;;7.63;5.50;;;;;;;6.97;55.76;99257.25;5094906;28;20637;-67
2023/01/31 09:02:42;;;;;;;6.10;5.13;;;;;;;7.07;55.78;99260.47;5093788;28;20211;-66
2023/01/31 09:05:09;;;;;;;7.70;6.73;;;;;;;7.12;56.32;99263.41;5094778;28;20613;-66
2023/01/31 09:07:36;;;;;;;5.47;4.93;;;;;;;7.28;54.67;99257.97;5094540;28;20207;-68
2023/01/31 09:10:03;;;;;;;5.50;4.93;;;;;;;7.22;54.54;99264.78;5095439;28;20195;-67
2023/01/31 09:12:30;;;;;;;12.53;5.80;;;;;;;7.40;54.72;99261.81;5093139;28;20235;-67
2023/01/31 09:14:58;;;;;;;5.43;4.90;;;;;;;7.78;52.98;99260.69;5090583;28;20203;-66
2023/01/31 09:17:25;;;;;;;4.73;4.33;;;;;;;8.11;52.67;99246.03;5094305;28;20626;-67
2023/01/31 09:19:52;;;;;;;49.10;8.27;;;;;;;8.59;50.53;99262.09;5094675;28;20191;-66
2023/01/31 09:22:19;;;;;;;63.30;9.50;;;;;;;8.80;49.42;99258.59;5094850;28;20187;-67
2023/01/31 09:24:46;;;;;;;10.97;4.60;;;;;;;8.79;48.18;99256.97;5095062;28;20198;-66
2023/01/31 09:27:13;;;;;;;25.57;6.00;;;;;;;9.36;47.46;99266.38;5092727;28;20482;-64
2023/01/31 09:29:39;;;;;;;20.47;4.97;;;;;;;9.55;45.75;99268.34;5086699;28;20250;-65
2023/01/31 09:32:07;;;;;;;7.83;4.90;;;;;;;9.62;44.99;99271.03;5086939;28;20246;-64
2023/01/31 09:34:34;;;;;;;28.30;4.77;;;;;;;9.54;46.01;99268.53;5081437;28;20252;-65
2023/01/31 09:37:01;;;;;;;26.17;12.23;;;;;;;9.85;46.58;99260.97;5088609;28;20206;-65
2023/01/31 09:39:28;;;;;;;23.17;4.67;;;;;;;9.93;45.72;99258.94;5090268;28;20199;-64
2023/01/31 09:41:58;;;;;;;7.70;5.17;;;;;;;9.81;45.87;99254.41;5091421;28;20256;-66
2023/01/31 09:44:29;;;;;;;34.90;5.53;;;;;;;9.93;45.75;99268.75;5090843;28;20211;-64
2023/01/31 09:47:02;;;;;;;10.90;4.87;;;;;;;10.40;44.46;99261.63;5093793;28;20263;-65
2023/01/31 09:49:36;;;;;;;18.30;7.17;;;;;;;10.79;44.35;99250.25;5093988;28;20183;-66
2023/01/31 09:52:04;;;;;;;16.43;4.83;;;;;;;10.62;43.67;99246.34;5094668;28;20182;-66
2023/01/31 09:54:36;;;;;;;4.57;4.17;;;;;;;10.57;44.34;99246.09;5093621;28;20666;-66
2023/01/31 09:57:13;;;;;;;8.37;4.77;;;;;;;10.58;44.41;99229.97;5092482;28;20187;-66
2023/01/31 09:59:49;;;;;;;5.37;4.93;;;;;;;10.89;43.56;99232.03;5084698;28;20186;-64
2023/01/31 10:02:47;;;;;;;10.90;4.97;;;;;;;11.14;43.66;99227.75;5083177;28;20195;-64
2023/01/31 10:05:31;;;;;;;6.83;4.03;;;;;;;11.22;42.77;99230.19;5074950;28;20733;-63
2023/01/31 10:08:09;;;;;;;16.27;4.30;;;;;;;11.06;41.78;99230.59;5090399;28;20191;-64
2023/01/31 10:10:39;;;;;;;20.00;4.13;;;;;;;10.93;41.96;99222.63;5090175;28;20539;-67
2023/01/31 10:13:12;;;;;;;9.37;3.67;;;;;;;10.97;42.60;99213.25;5091450;28;20287;-66
2023/01/31 10:15:43;;;;;;;10.97;3.63;;;;;;;11.14;42.50;99209.13;5091233;28;20265;-64
2023/01/31 10:18:15;;;;;;;3.40;3.20;;;;;;;11.07;42.50;99211.00;5093718;28;20207;-65
2023/01/31 10:20:49;;;;;;;12.70;4.50;;;;;;;11.03;42.53;99207.91;5093774;28;20183;-65
2023/01/31 10:23:22;;;;;;;6.47;3.33;;;;;;;11.36;42.04;99207.88;5093775;28;20207;-65
2023/01/31 10:25:54;;;;;;;24.20;4.83;;;;;;;10.90;42.63;99199.97;5093739;28;20231;-67
2023/01/31 10:28:27;;;;;;;5.53;4.73;;;;;;;10.91;43.71;99195.47;5093210;28;20196;-65
2023/01/31 10:31:00;;;;;;;16.23;4.40;;;;;;;10.19;44.60;99189.25;5082342;28;20188;-66
2023/01/31 10:33:35;;;;;;;4.90;4.10;;;;;;;10.50;44.79;99194.84;5088773;28;20207;-66
2023/01/31 10:36:11;;;;;;;4.03;3.63;;;;;;;10.61;44.08;99188.91;5090862;28;20241;-67
2023/01/31 10:38:51;;;;;;;5.87;3.70;;;;;;;10.30;43.92;99194.00;5092764;28;20189;-67
2023/01/31 10:41:24;;;;;;;7.67;3.60;;;;;;;10.11;44.84;99186.78;5083667;28;20209;-64
2023/01/31 10:43:58;;;;;;;5.33;3.87;;;;;;;10.13;44.57;99160.88;5092962;28;20775;-67
2023/01/31 10:46:26;;;;;;;20.47;4.30;;;;;;;10.17;44.35;99170.09;5093246;28;20622;-68
2023/01/31 10:48:52;;;;;;;4.80;4.40;;;;;;;10.39;44.59;99180.34;5092835;28;20187;-68
2023/01/31 10:51:35;;;;;;;4.47;4.07;;;;;;;10.52;44.70;99176.84;5093473;28;20612;-68
2023/01/31 10:54:22;;;;;;;4.87;3.43;;;;;;;10.42;44.68;99184.41;5093195;28;20646;-67
2023/01/31 10:56:49;;;;;;;8.93;4.30;;;;;;;10.35;44.10;99179.09;5093165;28;20183;-68
2023/01/31 10:59:23;;;;;;;5.27;4.00;;;;;;;10.02;44.10;99183.50;5092259;28;20195;-67
2023/01/31 11:01:50;;;;;;;5.43;4.10;;;;;;;9.93;44.33;99179.34;5092917;28;20268;-67
2023/01/31 11:04:27;;;;;;;6.53;4.47;;;;;;;9.76;45.16;99175.44;5092972;28;20280;-67
2023/01/31 11:06:58;;;;;;;8.97;5.00;;;;;;;9.76;45.04;99171.97;5093134;28;20171;-67
2023/01/31 11:09:29;;;;;;;8.20;5.00;;;;;;;9.90;45.54;99169.16;5092770;28;20569;-68
2023/01/31 11:11:57;;;;;;;18.10;5.90;;;;;;;9.87;44.92;99158.94;5092985;28;20187;-70
2023/01/31 11:14:24;;;;;;;14.77;5.73;;;;;;;9.60;45.52;99161.72;5092939;28;20222;-70
2023/01/31 11:16:59;;;;;;;3.80;3.33;;;;;;;9.75;45.90;99171.16;5092649;28;20220;-69
2023/01/31 11:19:33;;;;;;;4.80;4.30;;;;;;;9.46;46.63;99166.13;5092402;28;20191;-68
2023/01/31 11:22:02;;;;;;;7.37;3.93;;;;;;;9.51;46.66;99169.00;5101923;28;20194;-69
2023/01/31 11:24:32;;;;;;;17.37;4.73;;;;;;;9.13;47.25;99167.78;5113115;28;20539;-69
2023/01/31 11:27:02;;;;;;;24.07;4.67;;;;;;;9.14;47.21;99163.28;5112840;28;20230;-69
2023/01/31 11:29:32;;;;;;;12.50;3.83;;;;;;;9.30;46.74;99163.81;5113020;28;20190;-69
2023/01/31 11:32:01;;;;;;;13.10;4.53;;;;;;;9.27;46.89;99158.09;5094937;28;20183;-69
2023/01/31 11:34:30;;;;;;;21.73;4.87;;;;;;;9.29;47.69;99158.69;5091864;28;20646;-67
2023/01/31 11:37:06;;;;;;;21.60;5.60;;;;;;;9.17;47.44;99160.25;5087915;28;20195;-68
2023/01/31 11:39:36;;;;;;;5.00;3.90;;;;;;;9.02;48.53;99146.28;5079523;28;20186;-69
2023/01/31 11:42:11;;;;;;;27.10;5.30;;;;;;;9.11;48.29;99150.44;5080171;28;20555;-67
2023/01/31 11:44:59;;;;;;;6.53;4.93;;;;;;;9.12;48.66;99141.47;5074953;28;20712;-69
2023/01/31 11:47:38;;;;;;;12.07;5.10;;;;;;;9.11;48.53;99140.66;5085534;28;20259;-71
2023/01/31 11:50:06;;;;;;;12.90;4.80;;;;;;;8.83;49.93;99123.16;5083272;28;20191;-72
2023/01/31 11:52:35;;;;;;;14.93;7.03;;;;;;;8.87;49.54;99137.66;5072030;28;20199;-72
2023/01/31 11:55:05;;;;;;;7.07;5.10;;;;;;;8.85;49.58;99142.31;5078041;28;20256;-73
2023/01/31 11:57:35;;;;;;;6.40;4.10;;;;;;;8.59;50.65;99134.19;5090233;28;20195;-72